Time;durP1;ratioP1;P1;durP2;ratioP2;P2;SDS_P1;SDS_P2;PMS_P1;PMS_P2;Temp;Humidity;BMP_temperature;BMP_pressure;BME280_temperature;BME280_humidity;BME280_pressure;Samples;Min_cycle;Max_cycle;Signal;HPM_P1;HPM_P2
2022/07/16 00:02:19;;;;;;;2.97;1.42;;;;;;;17.18;48.75;98978.03;4485865;31;20088;-70
2022/07/16 00:04:46;;;;;;;1.90;1.25;;;;;;;17.16;48.74;98969.44;4485525;31;20084;-70
2022/07/16 00:07:13;;;;;;;3.75;1.40;;;;;;;17.16;48.78;98965.97;4485479;31;20542;-70
2022/07/16 00:09:41;;;;;;;5.10;1.52;;;;;;;17.16;48.85;98976.56;4485680;31;20092;-70
2022/07/16 00:12:08;;;;;;;2.75;1.10;;;;;;;17.13;48.72;98967.13;4485563;32;20088;-70
2022/07/16 00:14:35;;;;;;;3.37;1.67;;;;;;;17.13;48.66;98966.31;4483922;32;20096;-70
2022/07/16 00:17:03;;;;;;;4.07;1.58;;;;;;;17.15;48.49;98969.59;4485598;32;20100;-70
2022/07/16 00:19:30;;;;;;;3.12;1.33;;;;;;;17.17;48.41;98957.03;4485457;31;20529;-70
2022/07/16 00:21:57;;;;;;;5.78;1.62;;;;;;;17.13;48.40;98964.50;4485485;31;20111;-70
2022/07/16 00:24:25;;;;;;;4.82;1.48;;;;;;;17.12;48.47;98970.81;4485563;31;20096;-70
2022/07/16 00:26:53;;;;;;;3.03;1.48;;;;;;;17.11;48.50;98963.84;4485334;31;20108;-71
2022/07/16 00:29:20;;;;;;;2.40;1.37;;;;;;;17.14;48.46;98968.78;4485522;31;20097;-70
2022/07/16 00:31:49;;;;;;;2.03;1.40;;;;;;;17.12;48.61;98965.50;4485471;31;20115;-70
2022/07/16 00:34:17;;;;;;;2.42;1.25;;;;;;;17.07;48.84;98967.84;4485507;31;20081;-71
2022/07/16 00:36:45;;;;;;;2.25;1.45;;;;;;;17.03;48.99;98972.66;4485467;31;20129;-70
2022/07/16 00:39:13;;;;;;;2.35;1.37;;;;;;;17.06;49.00;98966.19;4485485;31;20393;-71
2022/07/16 00:41:42;;;;;;;1.98;1.35;;;;;;;17.04;49.08;98973.47;4485501;31;20114;-70
2022/07/16 00:44:15;;;;;;;2.22;1.30;;;;;;;17.03;49.18;98966.53;4485325;31;20506;-70
2022/07/16 00:46:44;;;;;;;6.70;1.60;;;;;;;17.04;49.24;98973.47;4485347;31;20513;-70
2022/07/16 00:49:12;;;;;;;1.50;1.40;;;;;;;16.97;49.41;98969.88;4485379;31;20088;-70
2022/07/16 00:51:57;;;;;;;3.62;1.95;;;;;;;16.91;49.63;98976.69;4485276;31;20450;-70
2022/07/16 00:54:25;;;;;;;2.40;1.30;;;;;;;16.89;49.79;98967.28;4485363;31;20461;-70
2022/07/16 00:56:52;;;;;;;4.12;1.50;;;;;;;16.84;49.88;98968.56;4485204;31;20084;-70
2022/07/16 00:59:19;;;;;;;2.12;1.45;;;;;;;16.80;50.14;98971.75;4485194;31;20104;-70
2022/07/16 01:01:46;;;;;;;4.30;1.40;;;;;;;16.68;50.43;98963.34;4485258;32;20144;-70
2022/07/16 01:04:15;;;;;;;2.00;1.20;;;;;;;16.62;50.67;98966.69;4485348;31;20123;-70
2022/07/16 01:06:45;;;;;;;2.70;1.85;;;;;;;16.60;50.79;98971.34;4468265;32;20135;-70
2022/07/16 01:09:14;;;;;;;1.77;1.10;;;;;;;16.51;51.04;98965.25;4469522;32;20105;-70
2022/07/16 01:11:43;;;;;;;1.92;1.20;;;;;;;16.47;51.18;98972.69;4469389;32;20515;-70
2022/07/16 01:14:11;;;;;;;2.78;1.50;;;;;;;16.41;51.42;98964.59;4469642;32;20088;-70
2022/07/16 01:16:38;;;;;;;3.42;1.42;;;;;;;16.42;51.24;98967.09;4468795;32;20162;-70
2022/07/16 01:19:07;;;;;;;2.97;1.73;;;;;;;16.40;51.19;98977.00;4469145;32;20097;-71
2022/07/16 01:21:34;;;;;;;3.78;1.45;;;;;;;16.42;51.18;98972.37;4469202;32;20426;-70
2022/07/16 01:24:02;;;;;;;2.30;1.35;;;;;;;16.38;51.24;98963.16;4469447;32;20118;-70
2022/07/16 01:26:29;;;;;;;2.10;1.27;;;;;;;16.31;51.55;98965.63;4469283;32;20119;-70
2022/07/16 01:28:56;;;;;;;6.25;1.52;;;;;;;16.26;51.66;98973.25;4469362;32;20104;-70
2022/07/16 01:31:24;;;;;;;1.85;1.30;;;;;;;16.15;52.01;98963.00;4469554;32;20088;-71
2022/07/16 01:36:38;;;;;;;1.92;1.55;;;;;;;16.01;52.43;98963.72;4469488;32;20093;-70
2022/07/16 01:39:06;;;;;;;2.28;1.55;;;;;;;15.96;52.42;98966.88;4469426;32;20096;-70
2022/07/16 01:41:33;;;;;;;3.78;1.50;;;;;;;15.88;52.73;98965.06;4468147;32;20566;-70
2022/07/16 01:44:00;;;;;;;1.87;1.40;;;;;;;15.89;52.71;98971.16;4469571;32;20088;-71
2022/07/16 01:46:28;;;;;;;1.62;1.45;;;;;;;15.85;52.79;98965.37;4468923;32;20089;-70
2022/07/16 01:48:55;;;;;;;2.53;2.17;;;;;;;15.76;53.08;98972.44;4469200;32;20161;-70
2022/07/16 01:51:22;;;;;;;5.35;1.62;;;;;;;15.73;53.23;98972.78;4469052;32;20462;-70
2022/07/16 01:53:49;;;;;;;2.80;1.70;;;;;;;15.67;53.48;98976.09;4469265;32;20096;-70
2022/07/16 01:56:17;;;;;;;4.62;1.60;;;;;;;15.65;53.67;98977.22;4469063;32;20100;-70
2022/07/16 01:58:44;;;;;;;3.33;1.95;;;;;;;15.59;53.97;98973.44;4469316;32;20089;-70
2022/07/16 02:01:11;;;;;;;2.20;1.50;;;;;;;15.58;54.10;98972.63;4483427;32;20558;-70
2022/07/16 02:03:38;;;;;;;2.28;1.45;;;;;;;15.50;54.36;98969.12;4484914;32;20108;-70
2022/07/16 02:06:06;;;;;;;3.15;1.60;;;;;;;15.49;54.54;98962.19;4484847;31;20161;-71
2022/07/16 02:08:33;;;;;;;2.65;1.83;;;;;;;15.47;54.70;98972.09;4484653;32;20145;-71
2022/07/16 02:11:00;;;;;;;3.37;1.70;;;;;;;15.41;54.85;98970.94;4484540;31;20520;-70
2022/07/16 02:13:28;;;;;;;3.90;1.40;;;;;;;15.36;54.91;98967.97;4484802;32;20120;-70
2022/07/16 02:15:55;;;;;;;3.87;1.60;;;;;;;15.31;55.04;98968.47;4484243;32;20115;-71
2022/07/16 02:18:22;;;;;;;2.97;1.73;;;;;;;15.23;55.21;98968.44;4484504;31;20119;-71
2022/07/16 02:20:49;;;;;;;3.90;1.67;;;;;;;15.16;55.39;98964.81;4484234;32;20799;-70
2022/07/16 02:23:17;;;;;;;3.85;2.00;;;;;;;15.15;55.25;98965.78;4484457;31;20145;-71
2022/07/16 02:25:44;;;;;;;3.10;1.80;;;;;;;15.17;55.01;98969.06;4484518;31;20491;-70
2022/07/16 02:28:11;;;;;;;5.95;1.52;;;;;;;15.06;55.33;98972.84;4484591;32;20205;-70
2022/07/16 02:30:40;;;;;;;3.20;1.60;;;;;;;15.02;55.51;98966.25;4485621;31;20084;-70
2022/07/16 02:33:08;;;;;;;3.92;1.62;;;;;;;15.06;55.39;98965.78;4486295;31;20201;-70
2022/07/16 02:35:37;;;;;;;2.22;1.62;;;;;;;15.02;55.61;98968.91;4486261;31;20119;-71
2022/07/16 02:38:06;;;;;;;2.92;1.65;;;;;;;14.97;55.86;98966.72;4484998;32;20101;-71
2022/07/16 02:40:34;;;;;;;3.83;1.90;;;;;;;14.93;55.90;98965.41;4486295;31;20151;-70
2022/07/16 02:43:03;;;;;;;3.47;1.73;;;;;;;14.82;56.10;98973.59;4486261;31;20100;-70
2022/07/16 02:45:31;;;;;;;2.95;1.70;;;;;;;14.81;56.01;98969.31;4485811;31;20472;-70
2022/07/16 02:47:59;;;;;;;2.75;1.80;;;;;;;14.79;55.85;98968.62;4484871;32;20462;-70
2022/07/16 02:50:27;;;;;;;3.30;1.80;;;;;;;14.73;55.83;98968.31;4486208;31;20100;-70
2022/07/16 02:52:55;;;;;;;4.05;1.98;;;;;;;14.75;55.66;98969.94;4486034;31;20443;-70
2022/07/16 02:55:22;;;;;;;4.15;1.85;;;;;;;14.78;55.41;98969.66;4486062;31;20099;-70
2022/07/16 02:57:50;;;;;;;6.65;1.60;;;;;;;14.72;55.47;98971.91;4486130;31;20088;-71
2022/07/16 03:00:19;;;;;;;1.85;1.58;;;;;;;14.68;55.54;98970.56;4486022;31;20167;-70
2022/07/16 03:02:46;;;;;;;2.37;1.45;;;;;;;14.78;55.34;98975.72;4486282;31;20453;-70
2022/07/16 03:05:14;;;;;;;3.47;1.48;;;;;;;14.82;55.15;98978.88;4486076;31;20098;-70
2022/07/16 03:07:41;;;;;;;2.08;1.50;;;;;;;14.82;55.20;98976.22;4486029;31;20161;-70
2022/07/16 03:10:10;;;;;;;4.72;2.00;;;;;;;14.85;55.02;98970.63;4485999;31;20149;-70
2022/07/16 03:12:38;;;;;;;3.60;1.50;;;;;;;14.82;55.08;98977.09;4485912;32;20092;-70
2022/07/16 03:15:07;;;;;;;3.78;1.52;;;;;;;14.87;55.05;98980.06;4485758;31;20123;-71
2022/07/16 03:17:34;;;;;;;5.28;1.73;;;;;;;14.92;54.92;98976.94;4486248;31;20097;-70
2022/07/16 03:20:02;;;;;;;6.12;1.70;;;;;;;14.93;54.96;98983.88;4486001;32;20633;-70
2022/07/16 03:22:29;;;;;;;2.70;1.52;;;;;;;14.89;55.02;98987.81;4484522;32;20153;-70
2022/07/16 03:24:56;;;;;;;2.67;1.33;;;;;;;14.91;55.14;98980.53;4486262;31;20123;-70
2022/07/16 03:27:24;;;;;;;2.10;1.70;;;;;;;14.96;55.06;98986.19;4485921;32;20122;-70
2022/07/16 03:29:51;;;;;;;3.62;1.60;;;;;;;14.99;54.99;98983.22;4485870;31;20092;-70
2022/07/16 03:32:18;;;;;;;3.92;1.67;;;;;;;15.07;54.83;98985.88;4485911;31;20095;-70
2022/07/16 03:34:46;;;;;;;3.08;1.40;;;;;;;15.12;54.77;98995.94;4485912;32;20153;-70
2022/07/16 03:37:13;;;;;;;3.85;1.33;;;;;;;15.17;54.71;98992.81;4485973;31;20560;-70
2022/07/16 03:39:40;;;;;;;3.87;2.10;;;;;;;15.31;54.34;98994.03;4485782;31;20118;-70
2022/07/16 03:42:08;;;;;;;2.17;1.30;;;;;;;15.35;54.04;98993.56;4485793;31;20079;-70
2022/07/16 03:44:35;;;;;;;3.40;1.50;;;;;;;15.50;53.69;98998.19;4485570;31;20101;-70
2022/07/16 03:47:02;;;;;;;3.10;1.67;;;;;;;15.56;53.47;99000.16;4485671;31;20093;-70
2022/07/16 03:49:29;;;;;;;3.97;1.60;;;;;;;15.62;53.18;98994.22;4485894;31;20118;-71
2022/07/16 03:51:56;;;;;;;2.15;1.33;;;;;;;15.67;52.96;99006.94;4485665;31;20084;-70
2022/07/16 03:54:24;;;;;;;6.65;1.48;;;;;;;15.75;52.75;99005.13;4485812;32;20081;-70
2022/07/16 03:56:51;;;;;;;6.05;2.58;;;;;;;15.81;52.70;99003.69;4485970;31;20165;-70
2022/07/16 03:59:18;;;;;;;3.62;1.40;;;;;;;15.87;52.48;99002.22;4485884;32;20469;-70
2022/07/16 04:01:45;;;;;;;1.65;1.17;;;;;;;15.91;52.47;99007.00;4485895;31;20157;-70
2022/07/16 04:04:13;;;;;;;1.73;1.30;;;;;;;16.06;52.10;99007.12;4485789;31;20150;-70
2022/07/16 04:06:40;;;;;;;3.00;1.15;;;;;;;16.17;51.85;98999.84;4485549;31;20445;-70
2022/07/16 04:09:07;;;;;;;4.53;1.55;;;;;;;16.21;51.77;98990.59;4485610;31;20149;-70
2022/07/16 04:11:34;;;;;;;2.70;1.37;;;;;;;16.27;51.81;98995.22;4485364;31;20095;-70
2022/07/16 04:14:01;;;;;;;2.67;1.42;;;;;;;16.33;51.67;98997.19;4485564;31;20458;-71
2022/07/16 04:16:28;;;;;;;3.47;1.60;;;;;;;16.36;51.69;99002.13;4485345;32;20441;-70
2022/07/16 04:18:56;;;;;;;3.12;1.37;;;;;;;16.35;51.88;99005.78;4485566;32;20542;-71
2022/07/16 04:21:23;;;;;;;7.03;1.37;;;;;;;16.48;51.53;99011.34;4485313;32;20092;-70
2022/07/16 04:23:50;;;;;;;2.75;1.62;;;;;;;16.56;51.20;99013.16;4485538;32;20573;-70
2022/07/16 04:26:17;;;;;;;2.78;1.50;;;;;;;16.66;51.43;99012.97;4485516;32;20088;-70
2022/07/16 04:28:45;;;;;;;4.72;1.48;;;;;;;16.80;50.79;99009.59;4485661;32;20096;-70
2022/07/16 04:31:12;;;;;;;5.30;1.40;;;;;;;16.81;50.49;99005.97;4485420;32;20088;-71
2022/07/16 04:33:40;;;;;;;4.55;1.37;;;;;;;16.94;50.15;99005.47;4485385;32;20555;-70
2022/07/16 04:36:08;;;;;;;2.35;1.33;;;;;;;17.05;50.18;99006.06;4485545;31;20490;-71
2022/07/16 04:38:35;;;;;;;3.75;1.33;;;;;;;17.04;49.97;99005.25;4485452;31;20096;-70
2022/07/16 04:41:02;;;;;;;4.32;1.30;;;;;;;17.12;50.22;99007.88;4485628;31;20106;-71
2022/07/16 04:43:29;;;;;;;2.03;1.42;;;;;;;17.23;49.91;99005.78;4485587;31;20116;-70
2022/07/16 04:45:56;;;;;;;2.45;1.17;;;;;;;17.39;49.62;99008.34;4485403;32;20502;-70
2022/07/16 04:48:24;;;;;;;4.30;1.90;;;;;;;17.30;49.52;99002.28;4485665;32;20100;-70
2022/07/16 04:50:51;;;;;;;2.33;1.23;;;;;;;17.42;49.48;99002.72;4483899;32;20076;-71
2022/07/16 04:53:19;;;;;;;1.70;1.20;;;;;;;17.56;49.19;99001.97;4484292;31;20131;-71
2022/07/16 04:55:46;;;;;;;1.75;1.20;;;;;;;17.74;48.78;99001.66;4485358;31;20117;-70
2022/07/16 04:58:14;;;;;;;2.87;1.40;;;;;;;17.71;49.11;99003.81;4485111;31;20110;-71
2022/07/16 05:00:41;;;;;;;5.78;1.50;;;;;;;17.85;48.72;99005.72;4485192;31;20111;-71
2022/07/16 05:03:09;;;;;;;3.33;1.30;;;;;;;17.95;48.51;99002.84;4485288;31;20097;-71
2022/07/16 05:05:37;;;;;;;3.12;1.33;;;;;;;18.16;47.93;99009.28;4485212;31;20165;-71
2022/07/16 05:08:08;;;;;;;3.35;1.25;;;;;;;18.24;47.89;99011.84;4485162;31;20100;-71
2022/07/16 05:10:36;;;;;;;2.20;1.42;;;;;;;18.20;47.55;99003.44;4485170;31;20088;-70
2022/07/16 05:13:05;;;;;;;3.47;1.48;;;;;;;18.26;47.33;99013.31;4485120;31;20093;-71
2022/07/16 05:15:32;;;;;;;3.97;1.20;;;;;;;18.30;47.23;99019.09;4484973;31;20522;-71
2022/07/16 05:18:00;;;;;;;2.45;1.45;;;;;;;18.37;47.21;99011.25;4485159;32;20092;-71
2022/07/16 05:20:27;;;;;;;3.12;1.50;;;;;;;18.42;46.86;99011.50;4485008;32;20100;-70
2022/07/16 05:22:54;;;;;;;5.03;1.48;;;;;;;18.33;47.00;99020.56;4484891;31;20456;-71
2022/07/16 05:25:22;;;;;;;3.17;1.27;;;;;;;18.52;46.63;99019.22;4485204;32;20100;-71
2022/07/16 05:27:50;;;;;;;1.83;1.35;;;;;;;18.43;46.76;99015.81;4485074;31;20485;-71
2022/07/16 05:30:17;;;;;;;3.45;1.50;;;;;;;18.57;46.53;99008.88;4485087;31;20096;-71
2022/07/16 05:32:45;;;;;;;2.85;1.12;;;;;;;18.70;46.45;99016.19;4484966;32;20681;-71
2022/07/16 05:35:16;;;;;;;4.18;1.30;;;;;;;18.85;45.92;99025.00;4485258;31;20092;-71
2022/07/16 05:37:44;;;;;;;1.65;1.20;;;;;;;18.50;46.54;99021.22;4485039;31;20087;-71
2022/07/16 05:40:12;;;;;;;1.70;1.25;;;;;;;18.74;46.32;99017.47;4485144;32;20134;-71
2022/07/16 05:42:39;;;;;;;4.35;1.25;;;;;;;18.75;46.23;99024.44;4484894;31;20100;-71
2022/07/16 05:45:14;;;;;;;4.30;1.48;;;;;;;18.91;45.30;99036.69;4484702;31;20111;-71
2022/07/16 05:47:41;;;;;;;4.22;1.17;;;;;;;18.77;45.98;99030.38;4484795;31;20442;-70
2022/07/16 05:50:09;;;;;;;2.35;1.42;;;;;;;18.81;45.85;99036.97;4484975;31;20129;-71
2022/07/16 05:52:36;;;;;;;3.92;1.33;;;;;;;18.86;45.61;99031.94;4484765;31;20127;-71
2022/07/16 05:55:04;;;;;;;1.67;1.12;;;;;;;18.85;46.02;99035.63;4484931;32;20426;-71
2022/07/16 05:57:31;;;;;;;3.62;1.60;;;;;;;18.93;46.08;99027.56;4484890;31;20167;-71
2022/07/16 05:59:58;;;;;;;6.20;1.40;;;;;;;18.93;45.78;99032.03;4484519;31;20419;-71
2022/07/16 06:02:26;;;;;;;4.07;1.65;;;;;;;18.94;46.28;99038.97;4484790;31;20100;-70
2022/07/16 06:04:53;;;;;;;2.42;1.60;;;;;;;19.11;46.13;99042.28;4484521;32;20619;-71
2022/07/16 06:07:20;;;;;;;2.75;1.33;;;;;;;19.07;46.31;99046.31;4484765;32;20460;-71
2022/07/16 06:09:47;;;;;;;2.40;1.20;;;;;;;19.01;46.65;99047.87;4484643;32;20490;-71
2022/07/16 06:12:15;;;;;;;2.80;1.50;;;;;;;19.33;45.77;99048.44;4484477;32;20093;-71
2022/07/16 06:14:42;;;;;;;1.90;1.37;;;;;;;19.23;46.07;99053.22;4484339;31;20800;-71
2022/07/16 06:17:09;;;;;;;2.33;1.37;;;;;;;19.48;45.54;99051.88;4484657;31;20469;-71
2022/07/16 06:19:40;;;;;;;2.28;1.60;;;;;;;19.62;45.03;99052.88;4484740;31;20092;-71
2022/07/16 06:22:08;;;;;;;2.58;1.50;;;;;;;19.56;44.93;99053.63;4484468;31;20901;-71
2022/07/16 06:24:35;;;;;;;4.55;1.70;;;;;;;19.68;44.88;99056.59;4484466;31;20118;-71
2022/07/16 06:27:03;;;;;;;6.35;1.58;;;;;;;19.81;44.91;99051.44;4484556;32;20160;-71
2022/07/16 06:29:30;;;;;;;4.53;1.60;;;;;;;19.79;45.17;99055.31;4484467;31;20114;-71
2022/07/16 06:31:57;;;;;;;7.35;1.65;;;;;;;20.14;44.18;99056.25;4484320;32;20104;-71
2022/07/16 06:34:25;;;;;;;2.53;1.42;;;;;;;20.21;44.15;99064.25;4484220;32;20129;-71
2022/07/16 06:36:52;;;;;;;2.95;1.67;;;;;;;20.21;44.02;99067.75;4484098;31;20088;-71
2022/07/16 06:39:19;;;;;;;4.18;1.60;;;;;;;20.14;44.19;99066.06;4484383;32;20084;-71
2022/07/16 06:41:46;;;;;;;3.08;1.67;;;;;;;20.27;43.80;99068.81;4484160;32;20158;-71
2022/07/16 06:44:13;;;;;;;3.05;1.55;;;;;;;20.20;44.17;99062.63;4484456;31;20356;-71
2022/07/16 06:46:40;;;;;;;3.10;1.73;;;;;;;20.27;44.09;99063.50;4484018;32;20092;-71
2022/07/16 06:49:08;;;;;;;4.80;1.80;;;;;;;20.45;43.74;99070.19;4484131;32;20144;-71
2022/07/16 06:51:35;;;;;;;3.72;1.50;;;;;;;20.39;43.82;99069.94;4484475;32;20093;-71
2022/07/16 06:54:02;;;;;;;2.60;1.50;;;;;;;20.47;43.73;99060.16;4483986;31;20092;-71
2022/07/16 06:56:29;;;;;;;3.28;1.60;;;;;;;20.61;43.88;99055.78;4484166;31;20115;-71
2022/07/16 06:58:56;;;;;;;3.47;1.35;;;;;;;20.71;43.61;99059.75;4483816;32;20083;-71
2022/07/16 07:01:24;;;;;;;3.67;1.40;;;;;;;20.87;42.88;99058.59;4483951;31;20153;-71
2022/07/16 07:03:51;;;;;;;4.03;1.60;;;;;;;21.11;42.07;99053.00;4484143;31;20135;-71
2022/07/16 07:06:18;;;;;;;4.00;1.45;;;;;;;21.19;42.34;99058.94;4483859;31;20518;-71
2022/07/16 07:08:46;;;;;;;1.98;1.50;;;;;;;21.45;41.43;99052.91;4483929;31;20514;-71
2022/07/16 07:11:20;;;;;;;4.72;1.45;;;;;;;21.39;41.28;99063.53;4482659;32;20435;-71
2022/07/16 07:13:48;;;;;;;2.10;1.33;;;;;;;21.37;41.19;99060.25;4483495;32;20433;-71
2022/07/16 07:16:16;;;;;;;2.35;1.37;;;;;;;21.59;40.93;99052.94;4484772;31;20587;-71
2022/07/16 07:18:43;;;;;;;4.93;1.40;;;;;;;21.50;40.89;99057.66;4486058;31;20453;-71
2022/07/16 07:21:11;;;;;;;1.95;1.30;;;;;;;21.67;40.33;99055.44;4485724;31;20096;-71
2022/07/16 07:23:38;;;;;;;2.33;1.33;;;;;;;21.80;39.52;99065.28;4486131;31;20111;-71
2022/07/16 07:26:05;;;;;;;2.40;1.70;;;;;;;21.89;39.99;99074.78;4485782;31;20096;-71
2022/07/16 07:28:32;;;;;;;13.27;1.70;;;;;;;21.93;39.37;99064.50;4485965;31;20081;-71
2022/07/16 07:31:00;;;;;;;1.80;1.30;;;;;;;22.06;38.99;99058.34;4485879;31;20096;-71
2022/07/16 07:33:27;;;;;;;1.95;1.45;;;;;;;21.81;39.19;99058.94;4486140;31;20108;-71
2022/07/16 07:35:54;;;;;;;2.65;1.73;;;;;;;21.72;39.14;99058.31;4485873;32;20109;-71
2022/07/16 07:38:21;;;;;;;3.12;1.55;;;;;;;21.90;38.90;99064.91;4485968;31;20092;-71
2022/07/16 07:40:49;;;;;;;2.62;1.40;;;;;;;22.07;39.65;99065.34;4485872;31;20562;-71
2022/07/16 07:43:16;;;;;;;2.90;1.30;;;;;;;22.26;37.47;99063.72;4485914;31;20096;-71
2022/07/16 07:45:44;;;;;;;3.85;1.85;;;;;;;22.39;38.53;99063.75;4485485;31;20087;-71
2022/07/16 07:48:11;;;;;;;3.28;1.35;;;;;;;22.26;38.79;99056.50;4485889;31;20625;-71
2022/07/16 07:50:39;;;;;;;3.12;1.30;;;;;;;22.46;37.39;99056.53;4485797;31;20092;-71
2022/07/16 07:53:06;;;;;;;3.20;2.00;;;;;;;22.31;37.30;99056.72;4485734;31;20105;-71
2022/07/16 07:55:34;;;;;;;1.98;1.23;;;;;;;22.54;36.76;99055.47;4485829;32;20088;-71
2022/07/16 07:58:01;;;;;;;2.10;1.25;;;;;;;22.45;36.10;99057.56;4485612;31;20541;-71
2022/07/16 08:00:28;;;;;;;2.97;1.30;;;;;;;22.63;36.21;99056.09;4485844;31;20453;-71
2022/07/16 08:02:56;;;;;;;4.32;1.40;;;;;;;22.70;34.69;99054.22;4485940;32;20123;-71
2022/07/16 08:05:23;;;;;;;1.92;1.30;;;;;;;22.56;35.47;99052.59;4485532;32;20091;-71
2022/07/16 08:07:50;;;;;;;3.60;1.37;;;;;;;22.95;35.55;99045.53;4485686;31;20096;-71
2022/07/16 08:10:18;;;;;;;6.07;1.55;;;;;;;23.06;33.93;99050.22;4485644;31;20115;-71
2022/07/16 08:12:45;;;;;;;4.47;1.48;;;;;;;22.94;32.78;99051.91;4485541;31;20110;-71
2022/07/16 08:15:12;;;;;;;3.87;1.27;;;;;;;23.26;32.60;99047.50;4485112;31;20568;-71
2022/07/16 08:17:40;;;;;;;2.03;1.15;;;;;;;23.08;33.25;99039.31;4485652;31;20115;-71
2022/07/16 08:20:09;;;;;;;2.45;1.40;;;;;;;23.11;33.03;99033.59;4485557;31;20088;-71
2022/07/16 08:22:36;;;;;;;2.75;1.73;;;;;;;23.33;32.96;99037.59;4485443;31;20097;-71
2022/07/16 08:27:50;;;;;;;4.18;1.25;;;;;;;23.11;32.90;99039.75;4485422;31;20145;-71
2022/07/16 08:30:19;;;;;;;2.37;1.42;;;;;;;23.20;32.55;99041.13;4485439;32;20142;-71
2022/07/16 08:32:46;;;;;;;3.65;1.10;;;;;;;22.99;32.87;99058.25;4485328;31;20093;-71
2022/07/16 08:35:13;;;;;;;4.12;1.17;;;;;;;23.26;32.97;99047.50;4485336;31;20117;-71
2022/07/16 08:37:43;;;;;;;1.87;1.15;;;;;;;23.25;32.53;99053.03;4485573;31;20104;-71
2022/07/16 08:40:13;;;;;;;2.75;1.20;;;;;;;23.58;32.18;99044.03;4485431;31;20092;-71
2022/07/16 08:42:41;;;;;;;4.00;1.20;;;;;;;23.47;32.97;99048.22;4485416;31;20084;-71
2022/07/16 08:45:10;;;;;;;1.50;1.20;;;;;;;23.54;33.13;99044.47;4485172;31;20119;-71
2022/07/16 08:47:38;;;;;;;5.68;1.60;;;;;;;23.78;32.45;99042.03;4485149;31;20445;-71
2022/07/16 08:50:09;;;;;;;4.60;1.30;;;;;;;23.48;32.59;99047.16;4485556;31;20366;-71
2022/07/16 08:52:41;;;;;;;2.58;1.12;;;;;;;23.56;33.11;99039.72;4485185;31;20096;-71
2022/07/16 08:55:09;;;;;;;6.75;1.45;;;;;;;24.04;32.78;99042.91;4485707;31;20092;-71
2022/07/16 08:57:39;;;;;;;4.00;1.60;;;;;;;23.88;32.37;99042.41;4485304;31;20084;-71
2022/07/16 09:00:12;;;;;;;2.53;1.42;;;;;;;23.85;32.67;99044.72;4485265;31;20104;-71
2022/07/16 09:02:40;;;;;;;2.92;1.40;;;;;;;23.95;32.24;99042.34;4485342;31;20088;-71
2022/07/16 09:05:08;;;;;;;2.78;1.45;;;;;;;24.25;31.63;99028.31;4485335;31;20112;-71
2022/07/16 09:07:35;;;;;;;4.60;1.80;;;;;;;24.55;32.47;99023.09;4485313;32;20103;-71
2022/07/16 09:10:04;;;;;;;2.58;1.75;;;;;;;24.62;31.22;99023.88;4485266;31;20120;-71
2022/07/16 09:12:42;;;;;;;2.00;1.27;;;;;;;24.60;31.93;99031.31;4485266;31;20097;-71
2022/07/16 09:15:25;;;;;;;2.25;1.17;;;;;;;24.45;31.83;99028.13;4484810;31;20409;-71
2022/07/16 09:18:18;;;;;;;3.42;1.27;;;;;;;24.61;31.41;99022.22;4480090;31;162446;-71
2022/07/16 09:20:54;;;;;;;4.00;1.45;;;;;;;24.80;30.94;99019.56;4485266;31;20089;-71
2022/07/16 09:23:36;;;;;;;1.60;1.12;;;;;;;24.83;31.21;99018.28;4485190;31;20441;-71
2022/07/16 09:26:08;;;;;;;7.25;1.30;;;;;;;24.62;31.18;99013.16;4485132;31;20084;-71
2022/07/16 09:28:43;;;;;;;3.08;1.30;;;;;;;24.88;31.72;99016.56;4485180;31;20150;-71
2022/07/16 09:31:35;;;;;;;2.83;1.50;;;;;;;24.75;31.63;99022.06;4485232;31;20141;-71
2022/07/16 09:34:08;;;;;;;2.47;1.50;;;;;;;24.76;31.34;99013.00;4485033;31;20088;-71
2022/07/16 09:36:37;;;;;;;7.97;1.50;;;;;;;24.73;31.76;99018.81;4485291;31;20072;-71
2022/07/16 09:39:06;;;;;;;2.37;1.40;;;;;;;24.77;31.24;99023.50;4484523;31;20114;-71
2022/07/16 09:41:46;;;;;;;3.47;1.40;;;;;;;25.01;30.89;99020.13;4485139;31;20088;-71
2022/07/16 09:44:22;;;;;;;2.55;1.42;;;;;;;25.58;31.32;99007.22;4485173;32;20223;-71
2022/07/16 09:47:16;;;;;;;4.57;1.58;;;;;;;25.54;29.89;99005.22;4484752;31;20108;-71
2022/07/16 09:49:51;;;;;;;3.22;1.40;;;;;;;25.43;30.30;99006.81;4482815;32;20115;-71
2022/07/16 09:52:32;;;;;;;5.95;1.50;;;;;;;25.37;30.58;99013.09;4483784;32;20100;-71
2022/07/16 09:55:00;;;;;;;2.10;1.60;;;;;;;25.71;30.49;99002.69;4485033;31;20555;-71
2022/07/16 09:57:28;;;;;;;10.23;1.60;;;;;;;25.80;29.67;99002.13;4484762;31;20088;-71
2022/07/16 09:59:57;;;;;;;2.72;1.30;;;;;;;26.12;29.57;98998.34;4484779;31;20157;-71
2022/07/16 10:02:38;;;;;;;2.15;1.52;;;;;;;26.32;29.46;98993.44;4484923;32;20119;-71
2022/07/16 10:05:05;;;;;;;4.87;1.50;;;;;;;26.20;30.40;98998.00;4478369;32;20613;-71
2022/07/16 10:07:33;;;;;;;2.22;1.40;;;;;;;26.35;30.88;98998.31;4469139;32;20100;-71
2022/07/16 10:10:00;;;;;;;2.50;1.30;;;;;;;26.84;30.14;98994.53;4469026;32;20116;-71
2022/07/16 10:12:31;;;;;;;4.40;1.50;;;;;;;27.27;31.34;98988.66;4469142;32;20104;-71
2022/07/16 10:15:00;;;;;;;2.55;1.58;;;;;;;27.28;29.34;98986.78;4467515;32;20122;-71
2022/07/16 10:17:37;;;;;;;4.35;1.30;;;;;;;27.42;28.72;98980.06;4467752;32;20104;-71
2022/07/16 10:20:11;;;;;;;3.67;1.60;;;;;;;26.88;29.65;98984.97;4468852;32;20115;-71
2022/07/16 10:22:41;;;;;;;3.45;1.58;;;;;;;26.33;29.99;98978.97;4468545;32;20132;-71
2022/07/16 10:25:14;;;;;;;2.70;1.75;;;;;;;26.87;30.57;98969.88;4468914;32;20450;-71
2022/07/16 10:27:43;;;;;;;5.22;1.87;;;;;;;27.30;29.46;98967.69;4468827;32;20412;-71
2022/07/16 10:30:18;;;;;;;2.12;1.42;;;;;;;27.24;29.29;98966.81;4468847;32;21016;-71
2022/07/16 10:33:06;;;;;;;5.28;1.65;;;;;;;27.66;29.22;98963.81;4468574;32;20158;-71
2022/07/16 10:35:40;;;;;;;1.80;1.50;;;;;;;27.00;29.39;98969.59;4468668;32;20127;-71
2022/07/16 10:38:18;;;;;;;3.28;1.70;;;;;;;27.46;29.71;98958.06;4469020;32;20076;-71
2022/07/16 10:41:07;;;;;;;6.72;2.10;;;;;;;27.83;29.34;98947.63;4468579;32;20076;-71
2022/07/16 10:43:35;;;;;;;3.55;1.50;;;;;;;28.21;28.44;98950.63;4468473;32;20154;-71
2022/07/16 10:46:05;;;;;;;1.98;1.70;;;;;;;28.46;28.94;98950.97;4468276;32;20568;-71
2022/07/16 10:48:38;;;;;;;2.75;1.35;;;;;;;28.21;27.94;98942.56;4468650;32;20115;-71
2022/07/16 10:51:18;;;;;;;2.80;1.80;;;;;;;27.84;28.93;98940.38;4469611;32;20114;-71
2022/07/16 10:53:58;;;;;;;2.85;1.75;;;;;;;27.51;28.84;98939.31;4470264;32;20141;-71
2022/07/16 10:56:39;;;;;;;2.85;1.87;;;;;;;27.42;29.11;98942.41;4470675;32;20089;-71
2022/07/16 10:59:08;;;;;;;2.42;1.65;;;;;;;27.04;29.44;98940.34;4473129;32;20159;-71
2022/07/16 11:01:39;;;;;;;4.97;2.08;;;;;;;26.47;30.03;98939.22;4486429;32;20064;-71
2022/07/16 11:04:07;;;;;;;3.70;1.70;;;;;;;26.70;30.32;98937.56;4486116;31;20527;-71
2022/07/16 11:06:35;;;;;;;3.15;1.80;;;;;;;26.99;29.95;98934.87;4486225;31;20149;-71
2022/07/16 11:09:05;;;;;;;4.93;2.03;;;;;;;27.33;29.98;98929.59;4486163;32;20096;-71
2022/07/16 11:11:34;;;;;;;5.12;1.80;;;;;;;27.39;30.29;98920.53;4486334;31;20145;-71
2022/07/16 11:14:02;;;;;;;2.50;1.80;;;;;;;27.30;29.97;98927.34;4486039;31;20799;-71
2022/07/16 11:16:30;;;;;;;2.50;1.45;;;;;;;27.44;29.72;98924.13;4486222;31;20490;-71
2022/07/16 11:19:01;;;;;;;4.25;2.22;;;;;;;27.60;29.65;98932.44;4486204;31;20087;-71
2022/07/16 11:21:30;;;;;;;4.00;1.83;;;;;;;27.64;29.30;98933.59;4486330;32;20080;-71
2022/07/16 11:23:59;;;;;;;2.15;1.60;;;;;;;27.68;29.00;98933.94;4484872;32;20552;-71
2022/07/16 11:26:29;;;;;;;4.45;1.90;;;;;;;27.80;28.85;98918.53;4486316;31;20157;-71
2022/07/16 11:29:01;;;;;;;3.53;1.80;;;;;;;28.26;28.50;98924.56;4486116;32;20079;-71
2022/07/16 11:31:34;;;;;;;4.53;1.90;;;;;;;28.35;27.83;98924.16;4486297;31;20080;-71
2022/07/16 11:34:05;;;;;;;2.83;1.87;;;;;;;28.73;27.49;98928.66;4485981;31;20545;-71
2022/07/16 11:36:40;;;;;;;6.55;1.70;;;;;;;28.94;27.22;98931.59;4486199;31;20156;-71
2022/07/16 11:39:24;;;;;;;2.35;1.65;;;;;;;29.35;26.70;98929.31;4485970;31;20488;-71
2022/07/16 11:41:54;;;;;;;2.42;1.50;;;;;;;29.00;27.02;98922.50;4486008;31;20079;-71
2022/07/16 11:44:22;;;;;;;4.47;1.60;;;;;;;28.61;27.39;98930.69;4485731;31;20449;-71
2022/07/16 11:47:01;;;;;;;2.65;1.80;;;;;;;28.86;27.13;98927.47;4485573;31;20542;-71
2022/07/16 11:49:39;;;;;;;2.60;1.98;;;;;;;29.00;28.20;98922.50;4486077;32;20602;-71